Time;durP1;ratioP1;P1;durP2;ratioP2;P2;SDS_P1;SDS_P2;PMS_P1;PMS_P2;Temp;Humidity;BMP_temperature;BMP_pressure;BME280_temperature;BME280_humidity;BME280_pressure;Samples;Min_cycle;Max_cycle;Signal;HPM_P1;HPM_P2
2022/04/25 00:00:41;;;;;;;20.20;11.93;;;;;;;;;;5024765;28;20431;-64
2022/04/25 00:03:06;;;;;;;17.45;11.55;;;8.00;99.90;;;;;;5032893;28;20434;-64
2022/04/25 00:05:32;;;;;;;23.15;12.52;;;;;;;;;;5020613;28;20437;-64
2022/04/25 00:07:58;;;;;;;19.67;12.35;;;;;;;;;;5016564;28;20433;-63
2022/04/25 00:10:24;;;;;;;19.00;11.52;;;8.40;99.90;;;;;;5013032;28;20455;-63
2022/04/25 00:12:50;;;;;;;16.75;11.32;;;;;;;;;;5026159;28;20432;-64
2022/04/25 00:15:16;;;;;;;16.83;10.98;;;;;;;;;;5029777;28;20427;-65
2022/04/25 00:17:42;;;;;;;18.73;11.35;;;;;;;;;;5026855;28;21051;-64
2022/04/25 00:20:10;;;;;;;17.13;11.00;;;;;;;;;;5027714;28;20438;-66
2022/04/25 00:22:36;;;;;;;21.02;12.18;;;;;;;;;;5023429;28;20486;-64
2022/04/25 00:25:03;;;;;;;18.00;12.00;;;;;;;;;;5023894;28;20425;-64
2022/04/25 00:27:29;;;;;;;18.17;11.77;;;;;;;;;;5027482;28;20549;-64
2022/04/25 00:29:56;;;;;;;18.80;12.45;;;;;;;;;;5032707;28;20423;-65
2022/04/25 00:32:23;;;;;;;17.98;11.52;;;;;;;;;;5031702;28;20433;-64
2022/04/25 00:34:49;;;;;;;19.95;12.15;;;;;;;;;;5026170;28;20804;-65
2022/04/25 00:37:15;;;;;;;18.40;11.77;;;;;;;;;;5028999;28;20443;-64
2022/04/25 00:39:41;;;;;;;21.63;12.48;;;;;;;;;;5009589;28;21633;-64
2022/04/25 00:42:07;;;;;;;18.05;11.68;;;8.70;99.90;;;;;;5030167;28;20471;-63
2022/04/25 00:44:33;;;;;;;19.70;12.05;;;;;;;;;;5031429;28;20435;-63
2022/04/25 00:47:00;;;;;;;18.13;12.35;;;;;;;;;;5025761;28;20424;-63
2022/04/25 00:49:26;;;;;;;18.38;12.43;;;8.80;99.90;;;;;;5028022;28;20450;-64
2022/04/25 00:51:52;;;;;;;18.83;13.10;;;8.80;99.90;;;;;;5033320;28;20435;-63
2022/04/25 00:54:20;;;;;;;21.10;13.10;;;;;;;;;;5029935;28;20455;-64
2022/04/25 00:56:48;;;;;;;19.90;13.35;;;;;;;;;;5030604;28;20445;-63
2022/04/25 00:59:16;;;;;;;20.95;14.18;;;;;;;;;;5029267;28;20775;-63
2022/04/25 01:01:42;;;;;;;17.58;12.68;;;9.00;99.90;;;;;;5020396;28;20433;-64
2022/04/25 01:04:09;;;;;;;18.52;12.80;;;;;;;;;;5029732;28;20448;-64
2022/04/25 01:06:35;;;;;;;18.75;12.73;;;8.80;99.90;;;;;;5030605;28;20482;-63
2022/04/25 01:09:01;;;;;;;19.85;12.50;;;;;;;;;;5025239;28;20457;-64
2022/04/25 01:11:27;;;;;;;19.65;12.95;;;8.90;99.90;;;;;;5030930;28;20418;-63
2022/04/25 01:13:54;;;;;;;19.23;13.18;;;;;;;;;;5026572;28;20728;-63
2022/04/25 01:16:20;;;;;;;24.50;13.67;;;;;;;;;;5013671;28;20496;-64
2022/04/25 01:18:46;;;;;;;20.23;13.45;;;8.90;99.90;;;;;;5024843;28;20494;-63
2022/04/25 01:21:14;;;;;;;19.40;13.63;;;;;;;;;;5025294;28;20437;-63
2022/04/25 01:29:10;;;;;;;19.70;13.47;;;;;;;;;;5020290;28;20501;-63
2022/04/25 01:31:37;;;;;;;22.80;13.38;;;;;;;;;;5015995;28;20801;-63
2022/04/25 01:34:04;;;;;;;21.98;14.07;;;;;;;;;;5029954;28;20423;-63
2022/04/25 01:36:30;;;;;;;21.25;13.25;;;8.60;99.90;;;;;;5027591;28;20434;-63
2022/04/25 01:38:57;;;;;;;23.42;14.48;;;;;;;;;;5012892;28;20439;-64
2022/04/25 01:41:23;;;;;;;21.40;14.03;;;;;;;;;;5026108;28;20415;-63
2022/04/25 01:43:49;;;;;;;23.23;14.50;;;;;;;;;;5022228;28;20434;-63
2022/04/25 01:46:15;;;;;;;19.37;13.87;;;;;;;;;;5029724;28;20441;-64
2022/04/25 01:48:42;;;;;;;21.73;14.40;;;;;;;;;;5036747;28;20433;-64
2022/04/25 01:51:08;;;;;;;22.40;13.97;;;;;;;;;;5030172;28;20442;-64
2022/04/25 01:53:33;;;;;;;22.15;13.98;;;8.20;99.90;;;;;;5030604;28;20442;-64
2022/04/25 01:55:59;;;;;;;21.27;14.20;;;;;;;;;;5021942;28;20443;-64
2022/04/25 01:58:26;;;;;;;22.90;14.57;;;;;;;;;;5036367;28;20934;-64
2022/04/25 02:00:52;;;;;;;23.75;14.40;;;;;;;;;;5016209;28;20425;-64
2022/04/25 02:03:19;;;;;;;21.15;14.10;;;;;;;;;;5028818;28;20431;-65
2022/04/25 02:05:45;;;;;;;21.63;14.63;;;;;;;;;;5031746;28;20422;-65
2022/04/25 02:08:11;;;;;;;20.90;14.55;;;;;;;;;;5031166;28;20458;-65
2022/04/25 02:10:37;;;;;;;22.83;14.57;;;;;;;;;;5024688;28;20424;-63
2022/04/25 02:13:03;;;;;;;22.13;14.35;;;;;;;;;;5037052;28;20442;-64
2022/04/25 02:15:29;;;;;;;21.55;14.40;;;;;;;;;;5022078;28;20439;-63
2022/04/25 02:17:55;;;;;;;21.77;14.35;;;;;;;;;;5036188;28;20469;-64
2022/04/25 02:20:21;;;;;;;21.97;14.13;;;;;;;;;;5033540;28;20423;-65
2022/04/25 02:22:48;;;;;;;23.33;15.20;;;;;;;;;;5035860;28;21169;-64
2022/04/25 02:25:13;;;;;;;22.40;14.37;;;7.60;99.90;;;;;;5023364;28;20432;-62
2022/04/25 02:27:40;;;;;;;21.58;14.25;;;;;;;;;;5035610;28;20518;-63
2022/04/25 02:30:06;;;;;;;22.67;15.15;;;;;;;;;;5026236;28;21116;-64
2022/04/25 02:32:32;;;;;;;23.27;14.73;;;;;;;;;;5036267;28;20435;-62
2022/04/25 02:34:59;;;;;;;21.83;14.60;;;;;;;;;;5033248;28;20525;-64
2022/04/25 02:37:25;;;;;;;25.65;15.45;;;;;;;;;;5037890;28;20431;-62
2022/04/25 02:39:52;;;;;;;25.13;15.43;;;;;;;;;;5023961;28;20428;-63
2022/04/25 02:42:18;;;;;;;22.17;15.25;;;;;;;;;;5022712;28;20431;-63
2022/04/25 02:44:43;;;;;;;23.75;15.05;;;7.70;99.90;;;;;;5023626;28;20434;-62
2022/04/25 02:47:09;;;;;;;23.00;15.57;;;;;;;;;;5035891;28;20465;-64
2022/04/25 02:49:35;;;;;;;20.63;14.98;;;7.50;99.90;;;;;;5031088;28;20975;-63
2022/04/25 02:52:02;;;;;;;25.77;15.87;;;;;;;;;;5029450;28;20419;-64
2022/04/25 02:54:28;;;;;;;20.88;14.65;;;;;;;;;;5027805;28;20475;-64
2022/04/25 02:56:55;;;;;;;26.23;15.40;;;;;;;;;;5032860;28;20431;-63
2022/04/25 02:59:21;;;;;;;21.45;15.45;;;;;;;;;;5023498;28;20424;-64
2022/04/25 03:01:47;;;;;;;23.38;15.55;;;7.30;99.90;;;;;;5019973;28;20423;-63
2022/04/25 03:04:13;;;;;;;22.83;15.30;;;;;;;;;;5034419;28;20423;-63
2022/04/25 03:06:39;;;;;;;24.48;15.75;;;;;;;;;;5033210;28;20419;-63
2022/04/25 03:09:05;;;;;;;22.48;14.75;;;;;;;;;;5026467;28;20487;-64
2022/04/25 03:11:34;;;;;;;21.02;15.00;;;;;;;;;;5027299;28;20460;-63
2022/04/25 03:14:00;;;;;;;24.48;15.70;;;;;;;;;;5023848;28;20448;-63
2022/04/25 03:16:29;;;;;;;23.95;14.82;;;;;;;;;;5029220;28;20473;-64
2022/04/25 03:18:58;;;;;;;22.13;15.47;;;;;;;;;;5018851;28;20429;-63
2022/04/25 03:21:24;;;;;;;20.35;14.10;;;;;;;;;;5027897;28;20438;-64
2022/04/25 03:23:51;;;;;;;22.45;15.00;;;;;;;;;;5032987;28;20432;-63
2022/04/25 03:26:17;;;;;;;20.45;14.73;;;;;;;;;;5028695;28;20462;-62
2022/04/25 03:28:44;;;;;;;23.08;14.75;;;;;;;;;;5026497;28;20511;-64
2022/04/25 03:31:10;;;;;;;21.55;13.95;;;;;;;;;;5017892;28;20417;-63
2022/04/25 03:33:36;;;;;;;23.00;14.45;;;;;;;;;;5024292;28;20423;-64
2022/04/25 03:36:03;;;;;;;21.52;14.07;;;;;;;;;;5035430;28;20446;-63
2022/04/25 03:38:30;;;;;;;20.48;14.13;;;;;;;;;;5031285;28;20504;-64
2022/04/25 03:40:56;;;;;;;19.75;14.07;;;;;;;;;;5024928;28;20448;-63
2022/04/25 03:43:24;;;;;;;20.70;14.07;;;;;;;;;;5025215;28;20434;-64
2022/04/25 03:45:50;;;;;;;22.20;13.65;;;;;;;;;;5030000;28;20431;-63
2022/04/25 03:48:16;;;;;;;19.73;13.48;;;;;;;;;;5029155;28;20466;-63
2022/04/25 03:50:42;;;;;;;21.25;13.43;;;;;;;;;;5024466;28;20420;-64
2022/04/25 03:53:10;;;;;;;20.08;13.30;;;7.30;99.90;;;;;;5031588;28;20535;-63
2022/04/25 03:58:21;;;;;;;19.17;12.95;;;;;;;;;;5029060;28;20421;-63
2022/04/25 04:00:48;;;;;;;19.75;12.80;;;;;;;;;;5031055;28;20420;-64
2022/04/25 04:03:15;;;;;;;19.27;12.30;;;;;;;;;;5032081;28;21279;-64
2022/04/25 04:05:42;;;;;;;20.13;13.30;;;;;;;;;;5026828;28;21223;-64
2022/04/25 04:08:09;;;;;;;17.97;12.87;;;;;;;;;;5030882;28;20424;-63
2022/04/25 04:10:35;;;;;;;19.23;13.00;;;;;;;;;;5030574;28;20453;-63
2022/04/25 04:13:01;;;;;;;19.77;12.48;;;;;;;;;;5024814;28;21247;-64
2022/04/25 04:15:27;;;;;;;16.48;11.77;;;;;;;;;;5023525;28;20999;-64
2022/04/25 04:17:53;;;;;;;18.85;12.25;;;;;;;;;;5031087;28;20419;-64
2022/04/25 04:20:19;;;;;;;18.83;12.90;;;;;;;;;;5030006;28;20430;-64
2022/04/25 04:22:45;;;;;;;20.48;13.25;;;;;;;;;;5025804;28;20435;-64
2022/04/25 04:25:13;;;;;;;20.13;13.43;;;;;;;;;;5029290;28;20435;-64
2022/04/25 04:27:42;;;;;;;22.40;14.00;;;7.90;99.90;;;;;;5022923;28;20451;-64
2022/04/25 04:30:10;;;;;;;21.88;14.20;;;;;;;;;;5021748;28;20429;-64
2022/04/25 04:32:38;;;;;;;19.38;14.40;;;7.80;99.90;;;;;;5034805;28;20426;-64
2022/04/25 04:35:06;;;;;;;21.08;14.52;;;;;;;;;;5020307;28;20892;-63
2022/04/25 04:37:35;;;;;;;21.90;15.15;;;;;;;;;;5027247;28;20944;-64
2022/04/25 04:42:46;;;;;;;18.90;13.80;;;;;;;;;;5027052;28;20435;-64
2022/04/25 04:45:12;;;;;;;22.05;14.30;;;;;;;;;;5020290;28;20444;-63
2022/04/25 04:47:39;;;;;;;20.60;14.30;;;;;;;;;;5032379;28;20476;-64
2022/04/25 04:50:06;;;;;;;20.58;12.77;;;;;;;;;;5027415;28;20427;-63
2022/04/25 04:52:32;;;;;;;19.55;13.40;;;;;;;;;;5029941;28;20446;-64
2022/04/25 04:54:59;;;;;;;17.00;12.48;;;;;;;;;;5029714;28;20425;-64
2022/04/25 04:57:25;;;;;;;18.67;13.00;;;;;;;;;;5027921;28;20428;-64
2022/04/25 04:59:51;;;;;;;16.85;12.43;;;;;;;;;;5027376;28;20949;-63
2022/04/25 05:02:17;;;;;;;21.48;13.02;;;;;;;;;;5028292;28;20430;-64
2022/04/25 05:04:46;;;;;;;20.50;13.88;;;;;;;;;;5023339;28;22136;-63
2022/04/25 05:07:13;;;;;;;19.63;13.27;;;;;;;;;;5030716;28;20894;-63
2022/04/25 05:09:39;;;;;;;20.25;13.70;;;;;;;;;;5021984;28;20785;-64
2022/04/25 05:12:05;;;;;;;22.42;13.55;;;8.10;99.90;;;;;;5026356;28;20419;-63
2022/04/25 05:14:31;;;;;;;17.70;13.25;;;;;;;;;;5022992;28;20405;-63
2022/04/25 05:16:57;;;;;;;24.80;13.40;;;;;;;;;;5023836;28;20429;-63
2022/04/25 05:19:23;;;;;;;20.25;13.25;;;;;;;;;;5029362;28;20452;-62
2022/04/25 05:21:49;;;;;;;18.17;13.17;;;;;;;;;;5033611;28;20420;-63
2022/04/25 05:24:15;;;;;;;17.92;13.30;;;;;;;;;;5027839;28;20529;-63
2022/04/25 05:26:41;;;;;;;19.83;13.93;;;7.70;99.90;;;;;;5033808;28;20419;-63
2022/04/25 05:29:07;;;;;;;17.83;13.23;;;;;;;;;;5032284;28;20455;-63
2022/04/25 05:31:34;;;;;;;19.08;13.73;;;;;;;;;;5027108;28;20493;-62
2022/04/25 05:34:01;;;;;;;19.80;13.57;;;;;;;;;;5035341;28;20447;-63
2022/04/25 05:36:27;;;;;;;19.10;13.15;;;;;;;;;;5028583;28;20861;-62
2022/04/25 05:38:53;;;;;;;22.02;13.95;;;;;;;;;;5035074;28;20422;-63
2022/04/25 05:41:19;;;;;;;20.38;13.60;;;;;;;;;;5037967;28;20418;-64
2022/04/25 05:43:46;;;;;;;22.20;14.48;;;;;;;;;;5022306;28;20466;-63
2022/04/25 05:46:12;;;;;;;20.10;13.88;;;;;;;;;;5030618;28;20420;-62
2022/04/25 05:54:09;;;;;;;18.33;12.25;;;;;;;;;;5028264;28;20780;-64
2022/04/25 05:56:34;;;;;;;16.77;12.23;;;7.70;99.90;;;;;;5029143;28;20498;-64
2022/04/25 05:59:00;;;;;;;18.23;12.90;;;;;;;;;;5025181;28;20786;-64
2022/04/25 06:01:26;;;;;;;18.17;12.83;;;;;;;;;;5029536;28;20566;-61
2022/04/25 06:03:52;;;;;;;18.17;13.00;;;8.20;99.90;;;;;;5032843;28;20456;-63
2022/04/25 06:06:21;;;;;;;17.35;12.10;;;;;;;;;;5024947;28;20432;-62
2022/04/25 06:08:47;;;;;;;18.10;12.13;;;;;;;;;;5012169;28;20440;-63
2022/04/25 06:11:13;;;;;;;16.65;12.27;;;;;;;;;;5022803;28;20457;-62
2022/04/25 06:13:44;;;;;;;17.60;12.43;;;;;;;;;;5026465;28;20472;-63
2022/04/25 06:16:11;;;;;;;16.27;11.43;;;;;;;;;;5032381;28;20423;-63
2022/04/25 06:18:37;;;;;;;20.50;12.27;;;7.60;99.90;;;;;;5024303;28;20413;-63
2022/04/25 06:21:03;;;;;;;18.77;12.52;;;;;;;;;;5038434;28;20867;-63
2022/04/25 06:23:30;;;;;;;17.38;12.45;;;;;;;;;;5027263;28;20472;-63
2022/04/25 06:25:57;;;;;;;16.45;12.18;;;;;;;;;;5030698;28;20415;-64
2022/04/25 06:28:26;;;;;;;15.88;11.90;;;;;;;;;;5029137;28;20427;-63
2022/04/25 06:30:52;;;;;;;19.27;12.15;;;;;;;;;;5021092;28;20444;-64
2022/04/25 06:33:18;;;;;;;18.30;12.10;;;8.20;99.90;;;;;;5026184;28;20433;-63
2022/04/25 06:35:45;;;;;;;16.57;11.67;;;;;;;;;;5020696;28;20461;-64
2022/04/25 06:38:12;;;;;;;17.48;12.02;;;;;;;;;;5026111;28;20737;-63
2022/04/25 06:40:38;;;;;;;15.57;12.27;;;;;;;;;;5023670;28;21016;-63
2022/04/25 06:43:04;;;;;;;16.55;11.93;;;;;;;;;;5031079;28;20481;-63
2022/04/25 06:45:31;;;;;;;17.27;12.23;;;;;;;;;;5026094;28;20421;-63
2022/04/25 06:47:57;;;;;;;16.57;11.60;;;;;;;;;;5024805;28;20448;-63
2022/04/25 06:50:23;;;;;;;18.60;12.18;;;;;;;;;;5023036;28;20459;-63
2022/04/25 06:52:49;;;;;;;16.10;11.85;;;;;;;;;;5034221;28;20423;-64
2022/04/25 06:55:15;;;;;;;16.13;12.60;;;;;;;;;;5030643;28;20855;-63
2022/04/25 06:57:42;;;;;;;16.15;12.10;;;8.10;99.90;;;;;;5016674;28;20428;-64
2022/04/25 07:00:09;;;;;;;20.35;13.10;;;;;;;;;;5029712;28;20439;-64
2022/04/25 07:02:36;;;;;;;18.67;12.57;;;8.40;99.90;;;;;;5033353;28;20506;-63
2022/04/25 07:05:04;;;;;;;17.42;12.60;;;;;;;;;;5021347;28;20416;-63
2022/04/25 07:07:31;;;;;;;18.92;11.93;;;;;;;;;;5037769;28;20423;-64
2022/04/25 07:09:57;;;;;;;18.70;12.30;;;;;;;;;;5025167;28;20408;-64
2022/04/25 07:12:23;;;;;;;17.88;12.55;;;;;;;;;;5037550;28;20431;-64
2022/04/25 07:14:49;;;;;;;19.67;12.25;;;;;;;;;;5027962;28;20435;-63
2022/04/25 07:17:15;;;;;;;18.80;12.95;;;;;;;;;;5020530;28;20431;-63
2022/04/25 07:19:42;;;;;;;19.20;12.82;;;;;;;;;;5033984;28;20415;-64
2022/04/25 07:30:23;;;;;;;18.17;11.65;;;;;;;;;;5008739;28;20441;-63
2022/04/25 07:32:49;;;;;;;17.17;12.38;;;;;;;;;;5028322;28;20414;-63
2022/04/25 07:35:15;;;;;;;16.40;11.63;;;;;;;;;;5027218;28;20482;-63
2022/04/25 07:37:42;;;;;;;16.95;10.98;;;;;;;;;;5028927;28;21356;-63
2022/04/25 07:40:09;;;;;;;16.00;11.23;;;;;;;;;;5026936;28;20514;-62
2022/04/25 07:42:35;;;;;;;16.25;11.10;;;;;;;;;;5035285;28;20899;-63
2022/04/25 07:45:02;;;;;;;16.73;10.87;;;;;;;;;;5027062;28;20419;-64
2022/04/25 07:47:28;;;;;;;14.13;10.63;;;;;;;;;;5024385;28;20432;-63
2022/04/25 07:49:54;;;;;;;17.10;11.20;;;;;;;;;;5028695;28;20802;-62
2022/04/25 07:52:20;;;;;;;16.48;11.40;;;;;;;;;;5024941;28;20433;-63
2022/04/25 07:54:46;;;;;;;19.77;11.45;;;;;;;;;;5032132;28;20423;-63
2022/04/25 07:57:12;;;;;;;17.80;11.55;;;;;;;;;;5017524;28;20785;-63
2022/04/25 07:59:38;;;;;;;16.98;11.10;;;;;;;;;;5027308;28;20489;-63
2022/04/25 08:02:05;;;;;;;18.45;11.23;;;8.30;99.90;;;;;;5018288;28;20423;-63
2022/04/25 08:04:31;;;;;;;16.70;11.10;;;;;;;;;;5008355;28;20535;-64
2022/04/25 08:06:57;;;;;;;15.48;10.85;;;;;;;;;;5024079;28;20443;-64
2022/04/25 08:09:23;;;;;;;15.73;11.10;;;;;;;;;;5015844;28;20425;-63
2022/04/25 08:17:56;;;;;;;17.20;11.63;;;;;;;;;;5028592;28;20415;-64
2022/04/25 08:20:18;;;;;;;16.30;11.63;;;8.70;99.90;;;;;;4999227;28;20432;-64
2022/04/25 08:22:45;;;;;;;19.02;12.25;;;8.50;99.90;;;;;;5025785;28;20429;-64
2022/04/25 08:25:12;;;;;;;15.47;11.77;;;8.40;99.90;;;;;;5024448;28;20414;-64
2022/04/25 08:27:38;;;;;;;16.10;11.93;;;;;;;;;;5031048;28;20424;-64
2022/04/25 08:30:04;;;;;;;17.38;12.32;;;;;;;;;;5024317;28;20419;-64
2022/04/25 08:32:33;;;;;;;17.33;12.10;;;;;;;;;;5023790;28;20420;-64
2022/04/25 08:34:59;;;;;;;18.42;12.77;;;;;;;;;;5022947;28;20441;-65
2022/04/25 08:37:25;;;;;;;16.95;12.70;;;8.60;99.90;;;;;;5025275;28;20423;-64
2022/04/25 08:39:51;;;;;;;21.23;13.73;;;9.10;99.90;;;;;;5012074;28;20431;-65
2022/04/25 08:42:20;;;;;;;19.95;13.07;;;;;;;;;;5023454;28;20653;-64
2022/04/25 08:44:52;;;;;;;20.48;13.38;;;8.60;99.90;;;;;;5013191;28;20490;-63
2022/04/25 08:47:18;;;;;;;20.20;12.95;;;;;;;;;;5016829;28;20461;-64
2022/04/25 08:49:44;;;;;;;17.30;12.25;;;;;;;;;;5023873;28;21097;-64
2022/04/25 08:52:11;;;;;;;17.02;12.05;;;;;;;;;;5025796;28;20671;-64
2022/04/25 08:54:37;;;;;;;16.70;12.23;;;;;;;;;;5023685;28;20416;-64
2022/04/25 08:57:03;;;;;;;18.13;12.20;;;;;;;;;;5027778;28;20441;-64
2022/04/25 08:59:31;;;;;;;20.23;12.47;;;;;;;;;;5026891;28;20490;-63
2022/04/25 09:01:57;;;;;;;18.40;11.60;;;;;;;;;;5015372;28;20537;-64
2022/04/25 09:04:24;;;;;;;18.35;11.13;;;;;;;;;;5026384;28;20428;-65
2022/04/25 09:06:55;;;;;;;16.38;10.68;;;;;;;;;;5022250;28;20434;-64
2022/04/25 09:09:21;;;;;;;16.25;10.40;;;;;;;;;;5014748;28;20433;-64
2022/04/25 09:14:32;;;;;;;15.85;10.27;;;;;;;;;;5011866;28;20424;-63
2022/04/25 09:17:03;;;;;;;14.90;10.23;;;;;;;;;;5026291;28;20469;-64
2022/04/25 09:19:33;;;;;;;15.05;10.75;;;9.00;99.90;;;;;;5030978;28;20447;-63
2022/04/25 09:21:59;;;;;;;19.13;11.63;;;;;;;;;;5014068;28;20437;-63
2022/04/25 09:24:29;;;;;;;17.63;12.57;;;;;;;;;;5031479;28;20424;-64
2022/04/25 09:27:08;;;;;;;14.07;9.70;;;;;;;;;;5022048;28;20493;-63
2022/04/25 09:29:38;;;;;;;14.15;8.20;;;;;;;;;;5020066;28;20427;-63
2022/04/25 09:32:04;;;;;;;15.40;8.63;;;;;;;;;;5015312;28;20519;-63
2022/04/25 09:37:16;;;;;;;12.55;8.15;;;;;;;;;;5016581;28;20413;-64
2022/04/25 09:39:42;;;;;;;13.05;8.25;;;;;;;;;;5019644;28;20424;-63
2022/04/25 09:42:09;;;;;;;12.00;7.47;;;;;;;;;;5017125;28;20440;-64
2022/04/25 09:44:55;;;;;;;11.97;8.07;;;;;;;;;;5024497;28;20429;-63
2022/04/25 09:47:36;;;;;;;14.77;8.38;;;;;;;;;;5013126;28;20440;-63
2022/04/25 09:50:04;;;;;;;10.23;7.57;;;;;;;;;;5029429;28;20420;-63
2022/04/25 09:52:31;;;;;;;12.30;7.50;;;;;;;;;;5024756;28;20466;-63
2022/04/25 09:55:09;;;;;;;15.80;7.50;;;;;;;;;;5019244;28;20928;-63
2022/04/25 09:57:35;;;;;;;11.05;7.22;;;;;;;;;;5020440;28;20495;-63
2022/04/25 10:00:03;;;;;;;11.55;7.63;;;;;;;;;;5034399;28;20441;-63
2022/04/25 10:02:29;;;;;;;12.63;7.53;;;;;;;;;;5022958;28;20451;-64
2022/04/25 10:04:56;;;;;;;11.85;7.45;;;;;;;;;;5028144;28;20432;-63
2022/04/25 10:07:23;;;;;;;10.52;7.32;;;;;;;;;;5031998;28;20889;-63
2022/04/25 10:09:52;;;;;;;10.85;7.63;;;;;;;;;;5024100;28;20429;-63
2022/04/25 10:12:18;;;;;;;12.50;7.47;;;;;;;;;;5028346;28;20438;-64
2022/04/25 10:14:44;;;;;;;11.98;7.38;;;9.90;99.90;;;;;;5019268;28;20519;-63
2022/04/25 10:17:11;;;;;;;13.75;7.15;;;;;;;;;;5023991;28;20445;-63
2022/04/25 10:19:38;;;;;;;11.88;7.10;;;;;;;;;;5027317;28;20437;-63
2022/04/25 10:22:05;;;;;;;11.48;7.22;;;;;;;;;;5019110;28;20423;-63
2022/04/25 10:24:32;;;;;;;12.60;7.00;;;;;;;;;;5025827;28;20440;-63
2022/04/25 10:27:02;;;;;;;13.77;6.90;;;;;;;;;;5030858;28;20846;-63
2022/04/25 10:29:34;;;;;;;13.68;7.13;;;;;;;;;;5018894;28;20421;-62
2022/04/25 10:32:00;;;;;;;10.57;6.68;;;10.20;99.90;;;;;;5012900;28;20429;-62
2022/04/25 10:34:47;;;;;;;12.68;6.10;;;;;;;;;;5023675;28;20963;-62
2022/04/25 10:37:32;;;;;;;13.45;6.18;;;;;;;;;;5030912;28;20909;-62
2022/04/25 10:40:00;;;;;;;11.93;6.70;;;10.40;99.90;;;;;;5028730;28;20959;-62
2022/04/25 10:45:12;;;;;;;14.93;7.93;;;;;;;;;;5010492;28;20421;-64
2022/04/25 10:47:58;;;;;;;11.10;5.95;;;10.80;99.90;;;;;;5017145;28;20429;-63
2022/04/25 10:50:24;;;;;;;11.23;6.35;;;;;;;;;;5014340;28;20424;-63
2022/04/25 10:52:54;;;;;;;9.52;6.40;;;;;;;;;;5038026;28;20462;-62
2022/04/25 10:55:29;;;;;;;9.07;6.15;;;;;;;;;;5021860;28;20491;-63
2022/04/25 10:58:05;;;;;;;10.80;5.95;;;;;;;;;;5038309;28;20441;-63
2022/04/25 11:00:40;;;;;;;11.48;6.45;;;;;;;;;;5022650;28;20436;-63
2022/04/25 11:03:07;;;;;;;9.30;5.68;;;;;;;;;;5021857;28;20439;-63
2022/04/25 11:05:35;;;;;;;10.48;5.70;;;11.20;99.90;;;;;;5017328;28;20417;-62
2022/04/25 11:08:17;;;;;;;10.88;5.90;;;;;;;;;;5028794;28;20533;-64
2022/04/25 11:10:46;;;;;;;11.98;6.20;;;;;;;;;;5022655;28;20430;-63
2022/04/25 11:13:13;;;;;;;11.00;6.03;;;;;;;;;;5029394;28;20864;-63
2022/04/25 11:15:39;;;;;;;10.65;6.15;;;;;;;;;;5017516;28;20441;-63
2022/04/25 11:18:21;;;;;;;10.95;5.90;;;;;;;;;;5012988;28;20430;-63
2022/04/25 11:21:04;;;;;;;11.10;6.13;;;;;;;;;;5031414;28;20434;-63
2022/04/25 11:23:31;;;;;;;8.48;5.57;;;;;;;;;;5029208;28;20446;-65
2022/04/25 11:25:59;;;;;;;10.93;5.57;;;;;;;;;;5019751;28;20433;-63
2022/04/25 11:28:26;;;;;;;7.90;5.55;;;;;;;;;;5031067;28;21016;-63
2022/04/25 11:31:15;;;;;;;9.35;5.82;;;;;;;;;;5025203;28;20469;-63
2022/04/25 11:33:44;;;;;;;10.43;5.68;;;;;;;;;;5019223;28;20431;-62
2022/04/25 11:36:11;;;;;;;9.25;5.53;;;;;;;;;;5022025;28;20526;-63
2022/04/25 11:41:32;;;;;;;9.63;5.60;;;;;;;;;;5027388;28;20423;-63
2022/04/25 11:43:58;;;;;;;9.48;5.80;;;;;;;;;;5006476;28;20447;-63
2022/04/25 11:46:25;;;;;;;7.37;5.10;;;;;;;;;;5003929;28;20439;-64
2022/04/25 11:48:52;;;;;;;8.47;5.73;;;;;;;;;;5020038;28;20425;-62
2022/04/25 11:51:24;;;;;;;9.47;5.77;;;;;;;;;;5024529;28;20419;-63
2022/04/25 11:53:54;;;;;;;8.45;6.68;;;;;;;;;;5033078;28;20442;-62
2022/04/25 11:56:23;;;;;;;9.15;6.18;;;;;;;;;;5023610;28;20425;-63
2022/04/25 11:58:53;;;;;;;8.85;5.93;;;;;;;;;;5019275;28;20428;-63
2022/04/25 12:01:38;;;;;;;8.95;6.10;;;11.90;99.90;;;;;;5025288;28;20875;-61
2022/04/25 12:04:23;;;;;;;10.02;6.32;;;;;;;;;;5031978;28;20450;-63
2022/04/25 12:06:49;;;;;;;9.65;6.18;;;;;;;;;;5016367;28;20672;-63
2022/04/25 12:17:40;;;;;;;10.13;6.30;;;;;;;;;;5022978;28;20803;-63
2022/04/25 12:20:10;;;;;;;10.32;6.70;;;;;;;;;;5022615;28;20434;-63
2022/04/25 12:22:39;;;;;;;10.88;7.25;;;11.70;99.90;;;;;;5034570;28;20455;-63
2022/04/25 12:25:18;;;;;;;11.15;6.80;;;;;;;;;;5027527;28;20457;-63
2022/04/25 12:28:04;;;;;;;10.85;6.53;;;;;;;;;;5027484;28;20427;-64
2022/04/25 12:30:44;;;;;;;11.80;6.90;;;;;;;;;;5032879;28;20434;-62
2022/04/25 12:33:11;;;;;;;11.05;6.85;;;;;;;;;;5027141;28;20763;-62
2022/04/25 12:35:37;;;;;;;11.07;6.80;;;;;;;;;;5029373;28;20781;-63
2022/04/25 12:38:07;;;;;;;11.57;7.57;;;11.30;99.90;;;;;;5029454;28;20431;-63
2022/04/25 12:40:34;;;;;;;11.82;7.35;;;;;;;;;;5024773;28;20431;-63
2022/04/25 12:43:00;;;;;;;15.35;8.50;;;;;;;;;;5022247;28;20429;-63
2022/04/25 12:45:26;;;;;;;12.60;7.68;;;;;;;;;;5012206;28;20416;-63
2022/04/25 12:47:56;;;;;;;11.23;7.63;;;;;;;;;;5007221;28;20790;-63
2022/04/25 12:50:42;;;;;;;12.25;7.70;;;;;;;;;;5027255;28;20439;-63
2022/04/25 12:53:09;;;;;;;13.60;8.90;;;;;;;;;;5021031;28;20444;-63
2022/04/25 12:55:43;;;;;;;11.48;8.30;;;;;;;;;;5020589;28;20482;-63
2022/04/25 12:58:09;;;;;;;11.02;7.60;;;;;;;;;;5020468;28;20436;-64
2022/04/25 13:00:42;;;;;;;12.25;8.13;;;;;;;;;;5025870;28;21063;-63
2022/04/25 13:03:09;;;;;;;12.07;7.60;;;;;;;;;;5021678;28;20419;-63
2022/04/25 13:05:35;;;;;;;11.90;8.25;;;11.90;99.90;;;;;;5022036;28;20986;-63
2022/04/25 13:08:01;;;;;;;13.98;8.32;;;11.90;99.90;;;;;;5017459;28;20450;-61
2022/04/25 13:10:27;;;;;;;13.30;7.80;;;;;;;;;;5021590;28;20509;-63
2022/04/25 13:12:56;;;;;;;11.98;7.82;;;;;;;;;;4996189;28;20764;-63
2022/04/25 13:15:25;;;;;;;13.55;8.40;;;;;;;;;;5019431;28;20436;-63
2022/04/25 13:17:51;;;;;;;8.95;6.70;;;;;;;;;;5021450;28;20486;-63
2022/04/25 13:20:20;;;;;;;10.40;7.13;;;;;;;;;;5025820;28;20422;-63
2022/04/25 13:22:46;;;;;;;9.65;7.47;;;12.50;99.90;;;;;;5022627;28;20838;-63
2022/04/25 13:25:14;;;;;;;11.10;7.47;;;;;;;;;;5022162;28;20479;-63
2022/04/25 13:27:41;;;;;;;11.20;7.25;;;12.50;99.90;;;;;;5014747;28;20434;-62
2022/04/25 13:30:08;;;;;;;11.73;7.40;;;;;;;;;;5013915;28;20466;-64
2022/04/25 13:32:35;;;;;;;11.40;7.60;;;;;;;;;;5026001;28;20457;-63
2022/04/25 13:35:01;;;;;;;12.90;7.30;;;;;;;;;;5018023;28;20429;-63
2022/04/25 13:37:31;;;;;;;11.55;7.65;;;;;;;;;;5031324;28;20428;-63
2022/04/25 13:39:57;;;;;;;11.10;7.43;;;;;;;;;;5030565;28;20454;-62
2022/04/25 13:42:23;;;;;;;11.77;6.70;;;;;;;;;;5028405;28;20968;-62
2022/04/25 13:44:49;;;;;;;11.07;7.33;;;;;;;;;;5026418;28;20427;-62
2022/04/25 13:47:15;;;;;;;11.38;7.13;;;;;;;;;;5028855;28;20433;-63
2022/04/25 13:49:43;;;;;;;11.35;6.93;;;;;;;;;;5030764;28;20453;-63
2022/04/25 13:52:10;;;;;;;10.25;6.63;;;;;;;;;;5027842;28;20467;-63
2022/04/25 13:54:37;;;;;;;10.18;6.72;;;;;;;;;;5027273;28;20430;-62
2022/04/25 13:57:04;;;;;;;11.05;7.28;;;;;;;;;;5015986;28;20432;-62
2022/04/25 13:59:30;;;;;;;10.55;7.70;;;;;;;;;;5013484;28;20543;-63
2022/04/25 14:01:56;;;;;;;12.88;7.07;;;;;;;;;;5029997;28;20427;-62
2022/04/25 14:04:23;;;;;;;12.35;7.20;;;;;;;;;;5029627;28;20432;-63
2022/04/25 14:06:50;;;;;;;12.60;6.80;;;;;;;;;;5028217;28;20434;-63
2022/04/25 14:09:16;;;;;;;10.52;6.78;;;;;;;;;;5032323;28;20484;-63
2022/04/25 14:11:42;;;;;;;12.33;7.20;;;;;;;;;;5028273;28;20428;-63
2022/04/25 14:14:08;;;;;;;10.52;6.68;;;12.50;99.90;;;;;;5032844;28;20494;-63
2022/04/25 14:16:34;;;;;;;10.82;7.20;;;;;;;;;;5031195;28;20434;-63
2022/04/25 14:19:00;;;;;;;10.68;6.55;;;;;;;;;;5026444;28;20426;-63
2022/04/25 14:21:26;;;;;;;13.45;7.05;;;;;;;;;;5023268;28;20501;-63
2022/04/25 14:23:52;;;;;;;9.98;6.80;;;;;;;;;;5025822;28;20428;-63
2022/04/25 14:26:18;;;;;;;9.48;6.43;;;;;;;;;;5023292;28;20510;-62
2022/04/25 14:28:45;;;;;;;10.65;6.80;;;;;;;;;;5032893;28;20415;-64
2022/04/25 14:31:11;;;;;;;10.57;7.22;;;;;;;;;;5025346;28;20434;-63
2022/04/25 14:33:37;;;;;;;10.65;7.22;;;;;;;;;;5030694;28;20437;-63
2022/04/25 14:36:03;;;;;;;10.57;7.20;;;12.60;99.90;;;;;;5024640;28;20432;-62
2022/04/25 14:38:30;;;;;;;11.02;7.20;;;;;;;;;;5018032;28;20456;-63
2022/04/25 14:40:56;;;;;;;12.02;7.13;;;;;;;;;;5023433;28;20415;-63
2022/04/25 14:43:23;;;;;;;12.63;7.00;;;;;;;;;;5030924;28;20494;-64
2022/04/25 14:45:49;;;;;;;11.65;7.00;;;;;;;;;;5028788;28;20475;-63
2022/04/25 14:48:16;;;;;;;10.90;7.15;;;;;;;;;;5016462;28;20420;-63
2022/04/25 14:56:12;;;;;;;10.13;6.75;;;;;;;;;;5021994;28;20438;-64
2022/04/25 14:58:38;;;;;;;11.75;6.93;;;;;;;;;;5029023;28;20419;-64
2022/04/25 15:01:04;;;;;;;12.95;7.65;;;;;;;;;;5022315;28;20429;-63
2022/04/25 15:03:30;;;;;;;10.68;6.75;;;;;;;;;;5026728;28;20451;-63